Time;durP1;ratioP1;P1;durP2;ratioP2;P2;SDS_P1;SDS_P2;PMS_P1;PMS_P2;Temp;Humidity;BMP_temperature;BMP_pressure;BME280_temperature;BME280_humidity;BME280_pressure;Samples;Min_cycle;Max_cycle;Signal;HPM_P1;HPM_P2
2023/12/08 00:00:53;;;;;;;13.80;10.20;;;;;;;-3.03;100.00;95547.91;7424873;19;20405;-96
2023/12/08 00:03:24;;;;;;;12.77;10.47;;;;;;;-2.49;100.00;95648.41;7421965;19;20405;-96
2023/12/08 00:05:53;;;;;;;13.20;10.43;;;;;;;-3.28;100.00;95512.34;7423620;19;20368;-96
2023/12/08 00:08:28;;;;;;;19.17;11.90;;;;;;;-3.63;100.00;95456.09;7423486;19;20376;-96
2023/12/08 00:11:00;;;;;;;12.77;9.87;;;;;;;-2.15;100.00;95690.31;7421972;19;20430;-96
2023/12/08 00:13:39;;;;;;;14.23;10.23;;;;;;;-2.50;100.00;95610.88;7424153;19;20393;-96
2023/12/08 00:16:13;;;;;;;14.30;11.37;;;;;;;-3.44;100.00;95486.66;7426971;19;20430;-96
2023/12/08 00:18:43;;;;;;;14.60;11.33;;;;;;;-3.28;100.00;95524.38;7409625;19;20453;-91
2023/12/08 00:21:10;;;;;;;15.87;11.30;;;;;;;-2.90;100.00;95567.38;7423620;19;20405;-96
2023/12/08 00:23:38;;;;;;;19.20;12.00;;;;;;;-2.47;100.00;95615.56;7423394;19;20373;-96
2023/12/08 00:26:06;;;;;;;14.33;10.93;;;;;;;-2.99;100.00;95550.78;7422421;19;20433;-96
2023/12/08 00:28:33;;;;;;;13.67;10.37;;;;;;;-3.43;100.00;95475.41;7422520;19;20374;-96
2023/12/08 00:31:00;;;;;;;17.60;11.30;;;;;;;-2.36;100.00;95639.63;7420001;19;20430;-96
2023/12/08 00:33:28;;;;;;;31.97;13.20;;;;;;;-2.78;100.00;95591.19;7420728;19;20370;-96
2023/12/08 00:35:55;;;;;;;20.27;12.87;;;;;;;-2.43;100.00;95641.56;7420020;19;20919;-96
2023/12/08 00:38:23;;;;;;;19.67;11.50;;;;;;;-2.61;100.00;95616.09;7420590;19;20382;-96
2023/12/08 00:40:50;;;;;;;22.00;11.83;;;;;;;-2.56;100.00;95644.44;7421971;19;20390;-96
2023/12/08 00:45:58;;;;;;;16.60;10.37;;;;;;;-2.55;100.00;95638.28;7420306;19;20378;-96
2023/12/08 00:48:26;;;;;;;13.53;10.63;;;;;;;-3.25;100.00;95529.03;7419330;19;20366;-96
2023/12/08 00:50:53;;;;;;;12.87;10.17;;;;;;;-3.59;100.00;95466.66;7417137;19;20434;-96
2023/12/08 00:53:21;;;;;;;13.87;12.07;;;;;;;-2.76;100.00;95607.13;7418535;19;20426;-96
2023/12/08 00:55:57;;;;;;;15.00;11.23;;;;;;;-3.42;100.00;95517.97;7418676;19;20381;-96
2023/12/08 00:58:25;;;;;;;15.70;12.50;;;;;;;-3.84;100.00;95437.03;7417327;19;20393;-96
2023/12/08 01:00:52;;;;;;;21.00;13.50;;;;;;;-2.99;100.00;95568.75;7415353;19;20393;-96
2023/12/08 01:03:20;;;;;;;18.23;12.50;;;;;;;-3.42;100.00;95497.47;7416252;19;20384;-96
2023/12/08 01:05:47;;;;;;;21.20;14.70;;;;;;;-3.60;100.00;95486.41;7415732;19;20402;-96
2023/12/08 01:08:15;;;;;;;20.00;14.60;;;;;;;-3.10;100.00;95554.22;7413483;19;20370;-96
2023/12/08 01:10:43;;;;;;;16.40;10.63;;;;;;;-3.14;100.00;95576.19;7412676;19;20418;-96
2023/12/08 01:13:10;;;;;;;13.67;10.60;;;;;;;-3.49;100.00;95528.38;7413309;19;20378;-96
2023/12/08 01:15:38;;;;;;;14.87;10.17;;;;;;;-4.32;100.00;95385.44;7413124;19;20370;-96
2023/12/08 01:18:05;;;;;;;22.30;11.90;;;;;;;-2.68;100.00;95611.13;7413599;19;20379;-96
2023/12/08 01:20:33;;;;;;;13.43;11.27;;;;;;;-3.67;100.00;95462.69;7413613;19;20387;-96
2023/12/08 01:23:00;;;;;;;14.07;9.87;;;;;;;-3.56;100.00;95494.41;7413537;19;20860;-96
2023/12/08 01:25:28;;;;;;;15.60;12.00;;;;;;;-4.18;100.00;95392.66;7412363;19;20380;-96
2023/12/08 01:27:56;;;;;;;13.00;9.63;;;;;;;-2.54;100.00;95622.66;7413707;19;21011;-96
2023/12/08 01:30:23;;;;;;;16.17;10.70;;;;;;;-3.61;100.00;95448.19;7411898;19;20867;-96
2023/12/08 01:32:51;;;;;;;19.73;11.27;;;;;;;-3.36;100.00;95492.22;7413589;19;20426;-96
2023/12/08 01:35:43;;;;;;;19.30;11.63;;;;;;;-3.32;100.00;95507.91;7414392;19;20364;-96
2023/12/08 01:38:30;;;;;;;24.83;14.37;;;;;;;-2.98;100.00;95544.63;7412983;19;20402;-96
2023/12/08 01:40:58;;;;;;;24.40;17.50;;;;;;;-3.30;100.00;95483.56;7413733;19;20385;-96
2023/12/08 01:43:25;;;;;;;26.57;15.50;;;;;;;-3.13;100.00;95505.91;7414460;19;20415;-96
2023/12/08 01:45:56;;;;;;;14.50;11.07;;;;;;;-3.50;100.00;95439.66;7415145;19;20374;-96
2023/12/08 01:48:25;;;;;;;10.53;7.73;;;;;;;-3.44;100.00;95428.47;7414021;19;20450;-96
2023/12/08 01:50:53;;;;;;;11.17;9.20;;;;;;;-2.93;100.00;95508.03;7421407;19;20426;-96
2023/12/08 01:53:20;;;;;;;11.33;8.60;;;;;;;-2.85;100.00;95523.03;7416464;19;20386;-96
2023/12/08 01:55:50;;;;;;;13.80;9.63;;;;;;;-2.90;100.00;95534.00;7422388;19;20374;-96
2023/12/08 01:58:18;;;;;;;18.30;9.53;;;;;;;-3.25;100.00;95506.72;7422790;19;20403;-96
2023/12/08 02:00:47;;;;;;;17.50;10.80;;;;;;;-3.92;100.00;95416.91;7421335;19;20366;-96
2023/12/08 02:03:16;;;;;;;16.20;11.10;;;;;;;-4.17;100.00;95366.03;7422867;19;20369;-96
2023/12/08 02:05:50;;;;;;;16.40;11.70;;;;;;;-3.41;100.00;95470.81;7423643;19;20378;-96
2023/12/08 02:08:18;;;;;;;13.63;10.70;;;;;;;-3.14;100.00;95486.38;7424117;19;20393;-96
2023/12/08 02:10:47;;;;;;;12.93;9.33;;;;;;;-3.14;100.00;95502.56;7423793;19;20425;-96
2023/12/08 02:13:17;;;;;;;19.20;10.53;;;;;;;-3.58;100.00;95434.91;7423269;19;20390;-96
2023/12/08 02:15:49;;;;;;;15.53;11.10;;;;;;;-3.38;100.00;95485.72;7422902;19;20384;-96
2023/12/08 02:18:17;;;;;;;13.43;9.60;;;;;;;-3.09;100.00;95530.88;7423904;19;20370;-96
2023/12/08 02:20:45;;;;;;;11.23;9.10;;;;;;;-3.47;100.00;95477.66;7422375;19;20418;-96
2023/12/08 02:23:12;;;;;;;14.93;10.03;;;;;;;-3.31;100.00;95484.59;7422792;19;20374;-96
2023/12/08 02:25:40;;;;;;;13.30;9.50;;;;;;;-4.13;100.00;95333.03;7422501;19;20358;-96
2023/12/08 02:28:08;;;;;;;11.40;9.23;;;;;;;-3.55;100.00;95440.34;7428184;19;20371;-96
2023/12/08 02:30:36;;;;;;;14.27;10.47;;;;;;;-4.25;100.00;95335.66;7428302;19;20374;-96
2023/12/08 02:33:12;;;;;;;13.43;9.23;;;;;;;-2.51;100.00;95575.16;7430579;19;20394;-96
2023/12/08 02:35:42;;;;;;;11.57;9.00;;;;;;;-3.78;100.00;95381.50;7428889;19;20366;-96
2023/12/08 02:38:15;;;;;;;11.57;9.23;;;;;;;-3.39;100.00;95445.72;7428354;19;20369;-96
2023/12/08 02:40:46;;;;;;;15.20;10.07;;;;;;;-3.23;100.00;95465.50;7426274;19;20385;-96
2023/12/08 02:43:18;;;;;;;10.90;8.33;;;;;;;-2.91;100.00;95464.94;7427006;19;20367;-96
2023/12/08 02:45:50;;;;;;;12.67;9.57;;;;;;;-2.81;100.00;95486.41;7426778;19;20449;-96
2023/12/08 02:48:23;;;;;;;11.07;8.73;;;;;;;-3.71;100.00;95356.50;7426480;19;20389;-96
2023/12/08 02:51:00;;;;;;;10.27;8.70;;;;;;;-3.11;100.00;95448.22;7426082;19;20373;-96
2023/12/08 02:53:34;;;;;;;12.60;9.80;;;;;;;-3.09;100.00;95460.81;7427127;19;20386;-96
2023/12/08 02:56:08;;;;;;;14.10;9.70;;;;;;;-3.04;100.00;95494.25;7428241;19;20395;-96
2023/12/08 02:58:46;;;;;;;12.33;9.83;;;;;;;-3.27;100.00;95475.41;7426578;19;20374;-96
2023/12/08 03:01:14;;;;;;;11.60;9.50;;;;;;;-2.50;100.00;95576.72;7429806;19;20441;-94
2023/12/08 03:03:42;;;;;;;9.87;8.83;;;;;;;-2.61;100.00;95573.22;7429270;19;20395;-96
2023/12/08 03:08:49;;;;;;;16.23;11.17;;;;;;;-3.48;100.00;95453.03;7434140;19;20419;-95
2023/12/08 03:11:17;;;;;;;12.40;9.90;;;;;;;-3.38;100.00;95462.66;7429970;19;20497;-96
2023/12/08 03:13:44;;;;;;;12.80;10.00;;;;;;;-3.07;100.00;95505.75;7429496;19;20427;-96
2023/12/08 03:16:12;;;;;;;12.43;10.33;;;;;;;-3.49;100.00;95476.34;7428134;19;20378;-96
2023/12/08 03:18:40;;;;;;;16.33;11.73;;;;;;;-3.31;100.00;95505.09;7427404;19;20404;-96
2023/12/08 03:21:08;;;;;;;14.03;10.20;;;;;;;-3.35;100.00;95498.88;7426077;19;20488;-96
2023/12/08 03:23:37;;;;;;;12.97;8.17;;;;;;;-3.69;100.00;95453.66;7427074;19;20366;-96
2023/12/08 03:26:07;;;;;;;13.40;10.03;;;;;;;-4.21;100.00;95382.84;7427111;19;20425;-96
2023/12/08 03:28:35;;;;;;;12.77;9.93;;;;;;;-3.13;100.00;95540.03;7428093;19;20374;-96
2023/12/08 03:31:02;;;;;;;18.50;10.13;;;;;;;-3.87;100.00;95403.41;7424934;19;20409;-96
2023/12/08 03:33:38;;;;;;;11.10;9.43;;;;;;;-3.66;100.00;95420.66;7426185;19;20369;-96
2023/12/08 03:36:06;;;;;;;11.00;9.23;;;;;;;-4.37;100.00;95334.91;7426607;19;20363;-96
2023/12/08 03:38:33;;;;;;;13.40;10.53;;;;;;;-3.57;100.00;95429.53;7425854;19;20390;-96
2023/12/08 03:41:01;;;;;;;16.67;9.97;;;;;;;-3.55;100.00;95422.38;7424573;19;20407;-96
2023/12/08 03:43:30;;;;;;;14.77;10.70;;;;;;;-3.75;100.00;95411.03;7425047;19;20366;-96
2023/12/08 03:46:02;;;;;;;15.90;10.70;;;;;;;-3.84;100.00;95385.78;7426859;19;20374;-96
2023/12/08 03:48:29;;;;;;;12.10;10.10;;;;;;;-3.73;100.00;95409.78;7426547;19;20374;-96
2023/12/08 03:50:57;;;;;;;15.10;10.37;;;;;;;-5.15;100.00;95203.25;7428025;19;20414;-96
2023/12/08 03:53:26;;;;;;;14.37;11.20;;;;;;;-3.91;100.00;95369.81;7430212;19;20387;-96
2023/12/08 03:55:56;;;;;;;20.60;12.70;;;;;;;-2.92;100.00;95510.34;7429299;19;20390;-96
2023/12/08 04:01:08;;;;;;;13.00;10.03;;;;;;;-3.10;100.00;95423.34;7422614;19;20791;-96
2023/12/08 04:03:39;;;;;;;16.57;10.63;;;;;;;-3.02;100.00;95446.81;7426032;19;20379;-96
2023/12/08 04:06:08;;;;;;;12.33;9.20;;;;;;;-4.28;100.00;95245.72;7426932;19;20481;-96
2023/12/08 04:08:36;;;;;;;11.47;8.53;;;;;;;-5.21;100.00;95088.34;7425453;19;20378;-96
2023/12/08 04:11:05;;;;;;;18.43;12.40;;;;;;;-3.35;100.00;95387.84;7424443;19;20427;-96
2023/12/08 04:13:33;;;;;;;44.80;23.40;;;;;;;-2.93;100.00;95454.91;7426010;19;20385;-96
2023/12/08 04:16:00;;;;;;;36.90;22.90;;;;;;;-4.29;100.00;95247.50;7424010;19;20383;-96
2023/12/08 04:18:28;;;;;;;40.20;22.10;;;;;;;-3.26;100.00;95407.72;7422471;19;20377;-96
2023/12/08 04:20:58;;;;;;;27.00;15.70;;;;;;;-3.09;100.00;95430.81;7423897;19;20437;-96
2023/12/08 04:23:27;;;;;;;20.50;12.90;;;;;;;-3.46;100.00;95371.50;7430031;19;20389;-96
2023/12/08 04:25:54;;;;;;;16.57;10.00;;;;;;;-2.84;100.00;95493.81;7424282;19;20469;-96
2023/12/08 04:28:28;;;;;;;13.43;9.63;;;;;;;-3.28;100.00;95414.09;7423362;19;20377;-96
2023/12/08 04:30:57;;;;;;;15.40;10.20;;;;;;;-4.12;100.00;95308.97;7422483;19;20414;-96
2023/12/08 04:33:25;;;;;;;12.77;9.87;;;;;;;-2.76;100.00;95496.75;7422878;19;20423;-96
2023/12/08 04:35:54;;;;;;;13.27;9.00;;;;;;;-3.51;100.00;95379.13;7428015;19;20395;-96
2023/12/08 04:38:35;;;;;;;18.37;13.70;;;;;;;-3.44;100.00;95376.41;7429409;19;20386;-96
2023/12/08 04:41:03;;;;;;;15.80;11.67;;;;;;;-3.20;100.00;95423.19;7428440;19;20397;-96
2023/12/08 04:43:56;;;;;;;12.50;10.47;;;;;;;-4.21;100.00;95266.81;7428532;19;20378;-96
2023/12/08 04:46:24;;;;;;;11.60;9.60;;;;;;;-4.31;100.00;95241.03;7428230;19;20382;-96
2023/12/08 04:48:57;;;;;;;14.50;8.77;;;;;;;-3.92;100.00;95293.91;7427188;19;20383;-96
2023/12/08 04:51:29;;;;;;;13.37;9.30;;;;;;;-4.68;100.00;95182.59;7427644;19;20429;-96
2023/12/08 04:54:02;;;;;;;10.23;7.97;;;;;;;-3.27;100.00;95361.78;7427982;19;20370;-96
2023/12/08 04:56:35;;;;;;;9.40;8.17;;;;;;;-2.80;100.00;95430.72;7428806;19;20374;-96
2023/12/08 04:59:02;;;;;;;9.70;8.73;;;;;;;-3.22;100.00;95371.34;7428857;19;20373;-96
2023/12/08 05:01:52;;;;;;;11.23;8.43;;;;;;;-5.51;100.00;95056.16;7427809;19;20389;-96
2023/12/08 05:04:34;;;;;;;15.57;9.87;;;;;;;-3.92;100.00;95316.97;7428556;19;20386;-96
2023/12/08 05:07:03;;;;;;;11.53;8.60;;;;;;;-4.30;100.00;95243.38;7428176;19;20388;-96
2023/12/08 05:09:38;;;;;;;11.47;8.50;;;;;;;-4.39;100.00;95231.19;7428363;19;20387;-96
2023/12/08 05:12:08;;;;;;;15.53;8.87;;;;;;;-3.27;100.00;95424.13;7426818;19;20408;-96
2023/12/08 05:14:52;;;;;;;15.30;10.10;;;;;;;-3.39;100.00;95422.63;7428259;19;20377;-96
2023/12/08 05:17:34;;;;;;;10.67;8.40;;;;;;;-3.62;100.00;95360.25;7428590;19;20418;-96
2023/12/08 05:20:15;;;;;;;9.83;8.57;;;;;;;-4.13;100.00;95250.31;7428766;19;20390;-96
2023/12/08 05:22:47;;;;;;;16.27;10.10;;;;;;;-2.95;100.00;95424.34;7426208;19;20409;-96
2023/12/08 05:25:21;;;;;;;13.50;9.63;;;;;;;-3.22;100.00;95384.19;7427844;19;20401;-96
2023/12/08 05:27:51;;;;;;;14.33;10.00;;;;;;;-4.89;100.00;95109.06;7428035;19;20381;-96
2023/12/08 05:30:19;;;;;;;11.17;8.47;;;;;;;-3.47;100.00;95321.25;7416445;19;20450;-96
2023/12/08 05:32:55;;;;;;;9.10;7.87;;;;;;;-3.82;100.00;95272.00;7425238;19;20366;-96
2023/12/08 05:35:25;;;;;;;11.73;8.90;;;;;;;-3.17;100.00;95369.63;7428056;19;20435;-96
2023/12/08 05:37:56;;;;;;;10.57;8.73;;;;;;;-3.06;100.00;95373.13;7427480;19;20382;-96
2023/12/08 05:40:31;;;;;;;11.83;8.00;;;;;;;-3.32;100.00;95310.41;7427839;19;20366;-96
2023/12/08 05:42:59;;;;;;;10.30;6.90;;;;;;;-2.86;100.00;95359.75;7426564;19;20373;-96
2023/12/08 05:45:36;;;;;;;10.97;6.90;;;;;;;-2.37;100.00;95428.19;7426708;19;20389;-96
2023/12/08 05:48:09;;;;;;;7.50;6.10;;;;;;;-2.83;100.00;95343.91;7425566;19;20378;-96
2023/12/08 05:50:38;;;;;;;10.40;7.97;;;;;;;-3.53;100.00;95229.88;7426121;19;20386;-96
2023/12/08 05:53:14;;;;;;;12.50;10.13;;;;;;;-4.23;100.00;95107.50;7416987;19;20449;-96
2023/12/08 05:58:16;;;;;;;12.57;9.17;;;;;;;-2.60;100.00;95355.72;7428095;19;20391;-96
2023/12/08 06:00:47;;;;;;;15.70;8.43;;;;;;;-2.23;100.00;95425.25;7427370;19;20394;-96
2023/12/08 06:03:14;;;;;;;15.67;9.63;;;;;;;-2.90;100.00;95325.34;7434157;19;20426;-96
2023/12/08 06:05:42;;;;;;;11.10;7.93;;;;;;;-2.69;100.00;95355.38;7433431;19;20419;-96
2023/12/08 06:08:18;;;;;;;18.13;12.80;;;;;;;-3.34;100.00;95254.25;7433122;19;20373;-96
2023/12/08 06:10:45;;;;;;;27.17;15.27;;;;;;;-3.17;100.00;95274.72;7420915;19;20919;-92
2023/12/08 06:13:13;;;;;;;44.17;23.00;;;;;;;-3.31;100.00;95255.53;7401720;19;20387;-93
2023/12/08 06:15:41;;;;;;;55.87;26.53;;;;;;;-2.23;100.00;95386.72;7404708;19;20683;-93
2023/12/08 06:18:09;;;;;;;40.90;21.20;;;;;;;-2.52;100.00;95338.13;7404130;19;20854;-93
2023/12/08 06:20:37;;;;;;;42.73;21.20;;;;;;;-1.81;100.00;95439.09;7403461;19;20484;-93
2023/12/08 06:23:04;;;;;;;17.57;11.70;;;;;;;-1.63;100.00;95417.44;7403804;19;20369;-94
2023/12/08 06:25:31;;;;;;;11.70;9.50;;;;;;;-2.27;100.00;95331.72;7407427;19;20377;-93
2023/12/08 06:27:59;;;;;;;12.13;9.40;;;;;;;-1.77;100.00;95422.19;7404491;19;20389;-94
2023/12/08 06:30:27;;;;;;;16.17;10.00;;;;;;;-2.23;100.00;95371.31;7404176;19;20390;-94
2023/12/08 06:32:54;;;;;;;13.87;9.10;;;;;;;-2.26;100.00;95382.06;7401632;19;20470;-93
2023/12/08 06:35:22;;;;;;;11.83;8.83;;;;;;;-2.26;100.00;95394.91;7403659;19;20393;-92
2023/12/08 06:37:50;;;;;;;13.53;8.93;;;;;;;-2.31;100.00;95395.66;7404246;19;20383;-93
2023/12/08 06:40:18;;;;;;;33.13;16.33;;;;;;;-1.48;100.00;95510.16;7403993;19;20390;-92
2023/12/08 06:42:45;;;;;;;20.27;13.30;;;;;;;-2.94;100.00;95332.75;7400949;19;20420;-92
2023/12/08 06:45:13;;;;;;;18.10;12.03;;;;;;;-2.06;100.00;95425.97;7403076;19;20875;-93
2023/12/08 06:47:40;;;;;;;18.50;10.60;;;;;;;-2.64;100.00;95337.47;7404211;19;20398;-93
2023/12/08 06:50:08;;;;;;;14.37;11.27;;;;;;;-2.85;100.00;95322.81;7403289;19;20689;-90
2023/12/08 06:52:36;;;;;;;13.73;9.50;;;;;;;-2.70;100.00;95341.78;7400922;19;20486;-92
2023/12/08 06:55:03;;;;;;;15.00;11.80;;;;;;;-2.92;100.00;95307.59;7403169;19;20683;-92
2023/12/08 06:57:31;;;;;;;12.30;9.20;;;;;;;-2.56;100.00;95320.88;7405450;19;20405;-93
2023/12/08 06:59:58;;;;;;;15.63;10.20;;;;;;;-2.09;100.00;95408.47;7403959;19;20379;-93
2023/12/08 07:02:28;;;;;;;18.30;11.90;;;;;;;-1.66;100.00;95468.56;7401458;19;20491;-93
2023/12/08 07:04:55;;;;;;;11.30;8.70;;;;;;;-2.19;100.00;95418.63;7402915;19;20398;-94
2023/12/08 07:07:23;;;;;;;15.67;10.23;;;;;;;-2.58;100.00;95376.81;7403403;19;20360;-93
2023/12/08 07:09:50;;;;;;;16.23;12.07;;;;;;;-2.68;100.00;95364.63;7403410;19;20385;-93
2023/12/08 07:12:18;;;;;;;12.13;9.50;;;;;;;-2.02;100.00;95449.41;7399683;19;20381;-94
2023/12/08 07:14:46;;;;;;;12.30;8.80;;;;;;;-2.40;100.00;95397.06;7402911;19;20370;-94
2023/12/08 07:17:13;;;;;;;11.53;9.20;;;;;;;-2.28;100.00;95405.44;7402620;19;20408;-93
2023/12/08 07:19:41;;;;;;;12.40;9.50;;;;;;;-2.86;100.00;95334.88;7403139;19;20390;-94
2023/12/08 07:22:08;;;;;;;16.13;9.30;;;;;;;-2.63;100.00;95345.94;7401348;19;20410;-93
2023/12/08 07:24:37;;;;;;;13.27;9.60;;;;;;;-2.85;100.00;95321.03;7402417;19;20442;-94
2023/12/08 07:27:05;;;;;;;14.87;10.40;;;;;;;-2.25;100.00;95401.59;7402755;19;20386;-93
2023/12/08 07:29:33;;;;;;;15.67;11.60;;;;;;;-1.55;100.00;95508.78;7403945;19;20395;-91
2023/12/08 07:32:01;;;;;;;16.33;11.40;;;;;;;-1.98;100.00;95453.06;7402717;19;20764;-91
2023/12/08 07:34:28;;;;;;;10.93;9.37;;;;;;;-1.74;100.00;95479.28;7402698;19;20392;-92
2023/12/08 07:36:55;;;;;;;15.57;11.13;;;;;;;-2.76;100.00;95336.81;7403429;19;20363;-93
2023/12/08 07:39:23;;;;;;;16.37;11.40;;;;;;;-2.66;100.00;95365.94;7401623;19;20375;-94
2023/12/08 07:41:50;;;;;;;15.47;12.10;;;;;;;-2.68;100.00;95364.63;7400034;19;20399;-94
2023/12/08 07:44:18;;;;;;;13.23;10.60;;;;;;;-1.67;100.00;95510.72;7401465;19;20859;-93
2023/12/08 07:46:45;;;;;;;17.17;11.80;;;;;;;-2.03;100.00;95445.28;7401549;19;20378;-93
2023/12/08 07:49:15;;;;;;;14.60;10.60;;;;;;;-2.13;100.00;95438.25;7401975;19;20474;-94
2023/12/08 07:51:42;;;;;;;15.40;9.83;;;;;;;-1.80;100.00;95486.91;7399657;19;20388;-93
2023/12/08 07:54:09;;;;;;;16.03;11.57;;;;;;;-2.79;100.00;95338.06;7401184;19;20417;-93
2023/12/08 07:56:37;;;;;;;18.67;12.57;;;;;;;-1.61;100.00;95497.69;7400091;19;20427;-94
2023/12/08 07:59:04;;;;;;;15.43;10.97;;;;;;;-2.56;100.00;95359.38;7401242;19;20879;-94
2023/12/08 08:01:32;;;;;;;19.50;12.93;;;;;;;-1.94;100.00;95456.69;7401450;19;20393;-93
2023/12/08 08:03:59;;;;;;;14.27;10.60;;;;;;;-1.95;100.00;95430.19;7401289;19;20378;-94
2023/12/08 08:06:27;;;;;;;12.47;10.20;;;;;;;-2.07;100.00;95381.50;7400752;19;20376;-93
2023/12/08 08:08:54;;;;;;;14.10;10.00;;;;;;;-1.52;100.00;95465.34;7401168;19;20371;-93
2023/12/08 08:11:22;;;;;;;17.80;9.77;;;;;;;-1.16;100.00;95506.84;7400488;19;20420;-93
2023/12/08 08:13:49;;;;;;;14.63;11.37;;;;;;;-1.87;100.00;95400.72;7398635;19;20374;-93
2023/12/08 08:16:17;;;;;;;17.93;13.00;;;;;;;-2.30;100.00;95363.81;7401485;19;20386;-92
2023/12/08 08:18:44;;;;;;;21.00;13.57;;;;;;;-1.80;100.00;95414.16;7401122;19;20394;-93
2023/12/08 08:21:12;;;;;;;14.73;9.47;;;;;;;-1.56;100.00;95436.00;7400131;19;20464;-93
2023/12/08 08:23:41;;;;;;;15.67;10.73;;;;;;;-1.97;100.00;95385.97;7399702;19;20377;-93
2023/12/08 08:26:08;;;;;;;14.27;10.03;;;;;;;-1.17;100.00;95464.09;7399198;19;20383;-93
2023/12/08 08:28:36;;;;;;;14.93;11.07;;;;;;;-1.29;100.00;95448.81;7400479;19;20921;-93
2023/12/08 08:31:03;;;;;;;14.30;9.97;;;;;;;-1.52;100.00;95416.47;7399811;19;20704;-93
2023/12/08 08:33:31;;;;;;;12.00;9.80;;;;;;;-1.17;100.00;95454.56;7399211;19;20382;-93
2023/12/08 08:35:59;;;;;;;16.97;10.70;;;;;;;-1.15;100.00;95454.34;7400708;19;20386;-94
2023/12/08 08:38:26;;;;;;;14.20;10.93;;;;;;;-1.21;100.00;95442.44;7399762;19;20382;-93
2023/12/08 08:40:54;;;;;;;14.70;10.80;;;;;;;-1.66;100.00;95374.16;7399561;19;20439;-94
2023/12/08 08:43:21;;;;;;;13.30;9.70;;;;;;;-1.83;100.00;95381.22;7400277;19;20699;-93
2023/12/08 08:45:49;;;;;;;14.80;10.07;;;;;;;-1.04;100.00;95462.91;7399417;19;20403;-93
2023/12/08 08:48:16;;;;;;;14.67;9.97;;;;;;;-1.46;100.00;95407.78;7399574;19;20375;-94
2023/12/08 08:50:48;;;;;;;16.93;10.97;;;;;;;-1.20;100.00;95441.44;7399468;19;20407;-94
2023/12/08 08:53:16;;;;;;;19.30;11.70;;;;;;;-0.58;100.00;95515.53;7397976;19;20394;-93
2023/12/08 08:55:44;;;;;;;14.80;12.10;;;;;;;-0.38;100.00;95520.81;7401058;19;20419;-95
2023/12/08 08:58:12;;;;;;;14.40;10.60;;;;;;;-0.61;100.00;95505.72;7396923;19;20421;-92
2023/12/08 09:00:40;;;;;;;14.97;11.30;;;;;;;-1.42;100.00;95399.59;7398940;19;20391;-93
2023/12/08 09:03:08;;;;;;;14.90;10.40;;;;;;;-1.29;100.00;95388.84;7399573;19;20362;-96
2023/12/08 09:05:40;;;;;;;14.70;10.63;;;;;;;-0.81;100.00;95484.97;7398946;19;20379;-92
2023/12/08 09:08:09;;;;;;;19.77;13.20;;;;;;;-0.60;100.00;95517.56;7399356;19;20369;-93
2023/12/08 09:10:37;;;;;;;14.90;10.93;;;;;;;-1.08;100.00;95426.59;7399504;19;20381;-96
2023/12/08 09:13:05;;;;;;;20.13;12.00;;;;;;;-1.23;100.00;95388.66;7397984;19;20403;-93
2023/12/08 09:15:32;;;;;;;16.70;13.40;;;;;;;-0.52;100.00;95514.56;7398527;19;20923;-93
2023/12/08 09:18:00;;;;;;;21.73;14.30;;;;;;;-0.85;100.00;95451.19;7399412;19;20378;-94
2023/12/08 09:20:27;;;;;;;21.43;12.20;;;;;;;-1.07;100.00;95417.84;7398704;19;20387;-94
2023/12/08 09:22:55;;;;;;;17.00;12.53;;;;;;;-1.08;100.00;95416.31;7398611;19;20422;-94
2023/12/08 09:25:23;;;;;;;13.07;10.30;;;;;;;-0.73;100.00;95459.53;7398690;19;20394;-94
2023/12/08 09:27:50;;;;;;;16.83;11.73;;;;;;;-1.45;100.00;95339.09;7398465;19;20699;-94
2023/12/08 09:30:18;;;;;;;15.27;10.50;;;;;;;-0.46;100.00;95498.09;7398758;19;20391;-94
2023/12/08 09:32:45;;;;;;;17.03;11.87;;;;;;;-0.86;100.00;95434.97;7397095;19;20382;-94
2023/12/08 09:35:13;;;;;;;21.33;13.60;;;;;;;-1.18;100.00;95364.75;7398210;19;20399;-94
2023/12/08 09:37:41;;;;;;;16.40;13.43;;;;;;;-0.94;100.00;95401.97;7398768;19;20445;-94
2023/12/08 09:40:10;;;;;;;23.07;12.97;;;;;;;-0.08;100.00;95506.53;7398048;19;20393;-93
2023/12/08 09:43:08;;;;;;;22.27;12.60;;;;;;;-0.91;100.00;95393.75;7397389;19;20407;-93
2023/12/08 09:45:38;;;;;;;17.40;10.20;;;;;;;-0.01;100.00;95513.03;7397661;19;20402;-93
2023/12/08 09:48:06;;;;;;;17.07;12.57;;;;;;;-0.56;100.00;95429.25;7397815;19;20379;-93
2023/12/08 09:50:34;;;;;;;14.03;10.60;;;;;;;-0.20;100.00;95450.03;7397924;19;20872;-94
2023/12/08 09:53:02;;;;;;;12.40;10.30;;;;;;;-0.38;100.00;95391.97;7397411;19;20391;-93
2023/12/08 09:55:29;;;;;;;12.00;10.60;;;;;;;-1.05;100.00;95309.47;7397139;19;20867;-93
2023/12/08 09:58:00;;;;;;;11.63;9.87;;;;;;;-0.81;100.00;95338.97;7395618;19;20398;-93
2023/12/08 10:00:32;;;;;;;23.97;14.27;;;;;;;-0.72;100.00;95334.09;7397396;19;20393;-94
2023/12/08 10:03:00;;;;;;;24.43;16.80;;;;;;;-0.64;100.00;95336.19;7397653;19;20363;-93
2023/12/08 10:05:28;;;;;;;38.20;22.60;;;;;;;-0.24;100.00;95412.13;7396980;19;20384;-93
2023/12/08 10:07:59;;;;;;;30.23;17.90;;;;;;;0.49;100.00;95503.94;7396987;19;20378;-94
2023/12/08 10:10:26;;;;;;;14.83;11.90;;;;;;;-0.02;100.00;95417.88;7397397;19;20374;-93
2023/12/08 10:12:54;;;;;;;19.67;14.50;;;;;;;-0.13;100.00;95388.72;7396259;19;20390;-94
2023/12/08 10:15:22;;;;;;;14.77;10.13;;;;;;;0.84;100.00;95492.91;7397036;19;20415;-93
2023/12/08 10:17:51;;;;;;;16.70;8.90;;;;;;;-0.03;100.00;95390.56;7396561;19;20864;-93
2023/12/08 10:20:21;;;;;;;16.60;10.13;;;;;;;0.54;100.00;95472.22;7398467;19;20378;-93
2023/12/08 10:22:48;;;;;;;12.13;9.50;;;;;;;0.71;100.00;95490.03;7397293;19;20391;-93
2023/12/08 10:25:20;;;;;;;16.30;9.43;;;;;;;-0.01;100.00;95368.63;7396972;19;20394;-94
2023/12/08 10:27:50;;;;;;;13.83;8.93;;;;;;;0.36;100.00;95423.63;7396477;19;20371;-94
2023/12/08 10:30:19;;;;;;;14.47;10.23;;;;;;;0.85;100.00;95478.19;7398011;19;20867;-93
2023/12/08 10:32:47;;;;;;;15.43;9.90;;;;;;;0.74;100.00;95479.97;7394844;19;20489;-93
2023/12/08 10:35:15;;;;;;;14.20;9.83;;;;;;;0.87;100.00;95486.44;7396307;19;20371;-93
2023/12/08 10:37:44;;;;;;;14.90;11.00;;;;;;;0.95;100.00;95480.00;7396215;19;20384;-93
2023/12/08 10:40:13;;;;;;;13.97;10.07;;;;;;;0.80;100.00;95470.44;7396366;19;20393;-94
2023/12/08 10:42:41;;;;;;;11.03;9.33;;;;;;;0.20;100.00;95377.16;7394308;19;20379;-94
2023/12/08 10:45:13;;;;;;;9.90;7.53;;;;;;;-0.31;100.00;95315.19;7395924;19;20395;-93
2023/12/08 10:47:43;;;;;;;15.23;9.50;;;;;;;-0.51;100.00;95275.69;7398621;19;20380;-93
2023/12/08 10:50:11;;;;;;;16.00;10.93;;;;;;;-0.00;100.00;95323.00;7403765;19;20375;-93
2023/12/08 10:52:40;;;;;;;9.73;8.63;;;;;;;1.00;100.00;95465.28;7401522;19;20444;-93
2023/12/08 10:55:10;;;;;;;11.70;9.13;;;;;;;0.18;100.00;95371.50;7403905;19;20401;-93
2023/12/08 10:57:38;;;;;;;13.93;8.80;;;;;;;0.05;100.00;95348.78;7401161;19;20410;-94
2023/12/08 11:00:18;;;;;;;11.40;9.10;;;;;;;1.11;100.00;95458.31;7403671;19;20374;-93
2023/12/08 11:02:50;;;;;;;11.10;9.63;;;;;;;0.85;100.00;95432.47;7400153;19;20402;-93
2023/12/08 11:05:28;;;;;;;12.70;8.30;;;;;;;0.32;100.00;95371.78;7402909;19;20411;-92
2023/12/08 11:07:58;;;;;;;15.63;10.50;;;;;;;0.23;100.00;95376.69;7402650;19;20453;-94
2023/12/08 11:10:31;;;;;;;13.70;10.03;;;;;;;-0.03;100.00;95313.97;7403234;19;20370;-94
2023/12/08 11:13:08;;;;;;;12.10;8.53;;;;;;;0.27;100.00;95328.69;7402733;19;20401;-93
2023/12/08 11:15:39;;;;;;;14.13;9.40;;;;;;;0.40;100.00;95319.66;7402505;19;20900;-93
2023/12/08 11:18:21;;;;;;;15.93;9.03;;;;;;;0.95;100.00;95384.44;7402589;19;20390;-94
2023/12/08 11:20:49;;;;;;;10.10;7.30;;;;;;;0.60;100.00;95339.53;7401948;19;20403;-93
2023/12/08 11:23:18;;;;;;;15.10;8.70;;;;;;;0.29;100.00;95328.44;7401959;19;20382;-93
2023/12/08 11:26:01;;;;;;;11.40;8.87;;;;;;;0.26;100.00;95357.34;7403244;19;20383;-92
2023/12/08 11:28:59;;;;;;;14.80;9.60;;;;;;;0.04;100.00;95305.97;7403068;19;20383;-93
2023/12/08 11:32:07;;;;;;;12.03;8.40;;;;;;;1.02;100.00;95439.19;7401750;19;20403;-93
2023/12/08 11:34:44;;;;;;;12.60;9.83;;;;;;;0.25;100.00;95353.97;7400999;19;20374;-93
2023/12/08 11:37:11;;;;;;;10.50;8.23;;;;;;;0.71;100.00;95431.44;7402153;19;20395;-94